createdAt,value
2018-03-03T00:01:53.459Z,-0.80
2018-03-03T00:04:20.502Z,-0.70
2018-03-03T00:06:46.725Z,-0.70
2018-03-03T00:09:12.959Z,-0.60
2018-03-03T00:11:39.157Z,-0.60
2018-03-03T00:14:06.945Z,-0.60
2018-03-03T00:16:33.199Z,-0.60
2018-03-03T00:18:59.408Z,-0.60
2018-03-03T00:21:25.586Z,-0.70
2018-03-03T00:23:51.739Z,-0.70
2018-03-03T00:26:18.678Z,-0.70
2018-03-03T00:28:45.643Z,-0.70
2018-03-03T00:31:11.847Z,-0.70
2018-03-03T00:33:38.781Z,-0.70
2018-03-03T00:36:04.952Z,-0.70
2018-03-03T00:38:31.099Z,-0.70
2018-03-03T00:40:57.367Z,-0.70
2018-03-03T00:43:23.513Z,-0.70
2018-03-03T00:45:50.447Z,-0.70
2018-03-03T00:48:17.493Z,-0.70
2018-03-03T00:50:44.417Z,-0.70
2018-03-03T00:53:10.612Z,-0.80
2018-03-03T00:55:36.857Z,-0.60
2018-03-03T00:58:03.055Z,-0.60
2018-03-03T01:00:29.238Z,-0.60
2018-03-03T01:02:55.524Z,-0.60
2018-03-03T01:05:21.743Z,-0.60
2018-03-03T01:07:47.926Z,-0.60
2018-03-03T01:10:14.115Z,-0.60
2018-03-03T01:12:40.349Z,-0.60
2018-03-03T01:15:06.542Z,-0.60
2018-03-03T01:17:32.713Z,-0.60
2018-03-03T01:19:59.047Z,-0.60
2018-03-03T01:22:25.233Z,-0.60
2018-03-03T01:24:51.402Z,-0.60
2018-03-03T01:27:17.600Z,-0.60
2018-03-03T01:29:43.814Z,-0.70
2018-03-03T01:32:10.682Z,-0.70
2018-03-03T01:34:36.949Z,-0.70
2018-03-03T01:37:03.159Z,-0.60
2018-03-03T01:39:29.376Z,-0.60
2018-03-03T01:41:55.617Z,-0.70
2018-03-03T01:44:21.832Z,-0.60
2018-03-03T01:46:48.059Z,-0.70
2018-03-03T01:49:14.285Z,-0.70
2018-03-03T01:51:41.580Z,-0.60
2018-03-03T01:54:07.791Z,-0.70
2018-03-03T01:56:34.059Z,-0.70
2018-03-03T01:59:01.026Z,-0.60
2018-03-03T02:01:27.330Z,-0.70
2018-03-03T02:03:53.549Z,-0.70
2018-03-03T02:06:19.766Z,-0.70
2018-03-03T02:08:45.928Z,-0.70
2018-03-03T02:11:12.918Z,-0.70
2018-03-03T02:13:39.137Z,-0.70
2018-03-03T02:16:05.306Z,-0.60
2018-03-03T02:18:31.541Z,-0.50
2018-03-03T02:20:57.711Z,-0.60
2018-03-03T02:23:23.926Z,-0.60
2018-03-03T02:25:50.822Z,-0.60
2018-03-03T02:28:17.349Z,-0.60
2018-03-03T02:30:43.566Z,-0.60
2018-03-03T02:33:09.783Z,-0.60
2018-03-03T02:35:35.948Z,-0.60
2018-03-03T02:38:02.162Z,-0.70
2018-03-03T02:40:28.363Z,-0.60
2018-03-03T02:42:54.617Z,-0.70
2018-03-03T02:45:20.822Z,-0.70
2018-03-03T02:47:46.975Z,-0.70
2018-03-03T02:50:13.195Z,-0.60
2018-03-03T02:52:39.394Z,-0.70
2018-03-03T02:55:05.682Z,-0.70
2018-03-03T02:57:31.830Z,-0.70
2018-03-03T02:59:58.797Z,-0.70
2018-03-03T03:02:24.967Z,-0.60
2018-03-03T03:04:51.223Z,-0.80
2018-03-03T03:07:17.960Z,-0.70
2018-03-03T03:09:44.171Z,-0.70
2018-03-03T03:12:10.360Z,-0.70
2018-03-03T03:14:36.561Z,-0.70
2018-03-03T03:17:03.472Z,-0.70
2018-03-03T03:19:29.674Z,-0.70
2018-03-03T03:21:56.165Z,-0.80
2018-03-03T03:24:22.366Z,-0.70
2018-03-03T03:26:48.806Z,-0.80
2018-03-03T03:29:14.783Z,-0.70
2018-03-03T03:31:40.946Z,-0.70
2018-03-03T03:34:07.124Z,-0.70
2018-03-03T03:36:34.089Z,-0.60
2018-03-03T03:39:00.272Z,-0.60
2018-03-03T03:41:26.471Z,-0.70
2018-03-03T03:43:52.638Z,-0.70
2018-03-03T03:46:19.606Z,-0.70
2018-03-03T03:48:45.783Z,-0.70
2018-03-03T03:51:11.985Z,-0.60
2018-03-03T03:53:38.135Z,-0.60
2018-03-03T03:56:04.335Z,-0.50
2018-03-03T03:58:30.536Z,-0.50
2018-03-03T04:00:57.486Z,-0.50
2018-03-03T04:03:25.158Z,-0.50
2018-03-03T04:05:51.322Z,-0.50
2018-03-03T04:08:17.580Z,-0.50
2018-03-03T04:10:44.163Z,-0.50
2018-03-03T04:13:10.338Z,-0.50
2018-03-03T04:15:36.572Z,-0.60
2018-03-03T04:18:02.757Z,-0.50
2018-03-03T04:20:28.947Z,-0.70
2018-03-03T04:22:55.922Z,-0.50
2018-03-03T04:25:22.195Z,-0.50
2018-03-03T04:27:48.440Z,-0.50
2018-03-03T04:30:14.625Z,-0.50
2018-03-03T04:32:40.831Z,-0.50
2018-03-03T04:35:07.193Z,-0.60
2018-03-03T04:37:33.422Z,-0.60
2018-03-03T04:39:59.578Z,-0.50
2018-03-03T04:42:25.835Z,-0.50
2018-03-03T04:44:52.757Z,-0.50
2018-03-03T04:47:19.043Z,-0.50
2018-03-03T04:49:45.197Z,-0.50
2018-03-03T04:52:11.424Z,-0.50
2018-03-03T04:54:37.638Z,-0.50
2018-03-03T04:57:04.996Z,-0.50
2018-03-03T04:59:38.059Z,-0.50
2018-03-03T05:02:06.043Z,-0.50
2018-03-03T05:04:38.302Z,-0.50
2018-03-03T05:07:12.598Z,-0.50
2018-03-03T05:09:39.540Z,-0.50
2018-03-03T05:12:05.755Z,-0.50
2018-03-03T05:14:33.452Z,-0.50
2018-03-03T05:17:14.536Z,-0.50
2018-03-03T05:22:51.069Z,-0.50
2018-03-03T05:25:18.223Z,-0.40
2018-03-03T05:27:50.647Z,-0.40
2018-03-03T05:30:22.980Z,-0.40
2018-03-03T05:33:08.084Z,-0.40
2018-03-03T05:35:41.120Z,-0.50
2018-03-03T05:38:13.467Z,-0.40
2018-03-03T05:40:39.662Z,-0.40
2018-03-03T05:46:25.635Z,-0.40
2018-03-03T05:51:53.552Z,-0.40
2018-03-03T05:54:35.717Z,-0.40
2018-03-03T05:57:07.989Z,-0.40
2018-03-03T06:02:41.100Z,-0.50
2018-03-03T06:05:11.154Z,-0.50
2018-03-03T06:10:36.357Z,-0.50
2018-03-03T06:13:02.555Z,-0.50
2018-03-03T06:15:28.998Z,-0.50
2018-03-03T06:17:55.252Z,-0.50
2018-03-03T06:20:21.791Z,-0.60
2018-03-03T06:22:48.208Z,-0.60
2018-03-03T06:25:15.219Z,-0.50
2018-03-03T06:27:41.390Z,-0.50
2018-03-03T06:30:07.753Z,-0.50
2018-03-03T06:32:34.712Z,-0.50
2018-03-03T06:35:01.650Z,-0.40
2018-03-03T06:37:28.957Z,-0.50
2018-03-03T06:39:55.194Z,-0.50
2018-03-03T06:42:21.349Z,-0.50
2018-03-03T06:44:48.078Z,-0.50
2018-03-03T06:47:14.285Z,-0.50
2018-03-03T06:49:40.477Z,-0.50
2018-03-03T06:52:07.425Z,-0.50
2018-03-03T06:54:35.552Z,-0.50
2018-03-03T06:57:02.050Z,-0.60
2018-03-03T06:59:28.303Z,-0.50
2018-03-03T07:01:55.577Z,-0.50
2018-03-03T07:04:22.290Z,-0.60
2018-03-03T07:06:48.463Z,-0.60
2018-03-03T07:09:14.905Z,-0.70
2018-03-03T07:11:41.376Z,-0.60
2018-03-03T07:14:08.833Z,-0.60
2018-03-03T07:16:35.098Z,-0.60
2018-03-03T07:19:01.309Z,-0.50
2018-03-03T07:21:27.847Z,-0.50
2018-03-03T07:23:54.096Z,-0.50
2018-03-03T07:26:20.482Z,-0.50
2018-03-03T07:28:46.782Z,-0.40
2018-03-03T07:31:13.763Z,-0.50
2018-03-03T07:33:40.050Z,-0.50
2018-03-03T07:36:07.053Z,-0.50
2018-03-03T07:38:33.262Z,-0.50
2018-03-03T07:40:59.622Z,-0.50
2018-03-03T07:43:25.830Z,-0.50
2018-03-03T07:45:52.026Z,-0.50
2018-03-03T07:48:18.880Z,-0.50
2018-03-03T07:50:45.839Z,-0.50
2018-03-03T07:53:12.034Z,-0.50
2018-03-03T07:55:39.339Z,-0.40
2018-03-03T07:58:05.547Z,-0.50
2018-03-03T08:00:31.859Z,-0.50
2018-03-03T08:02:58.238Z,-0.50
2018-03-03T08:05:25.631Z,-0.40
2018-03-03T08:07:52.012Z,-0.50
2018-03-03T08:10:18.374Z,-0.40
2018-03-03T08:12:44.651Z,-0.40
2018-03-03T08:15:11.644Z,-0.30
2018-03-03T08:17:38.008Z,-0.30
2018-03-03T08:20:04.258Z,-0.30
2018-03-03T08:22:31.187Z,-0.30
2018-03-03T08:24:57.576Z,-0.30
2018-03-03T08:27:23.800Z,-0.30
2018-03-03T08:29:50.036Z,-0.30
2018-03-03T08:32:16.266Z,-0.20
2018-03-03T08:34:42.438Z,-0.30
2018-03-03T08:37:09.372Z,-0.10
2018-03-03T08:39:35.606Z,-0.10
2018-03-03T08:42:02.544Z,-0.10
2018-03-03T08:44:28.736Z,-0.10
2018-03-03T08:46:55.089Z,0.00
2018-03-03T08:49:21.289Z,-0.10
2018-03-03T08:51:47.632Z,-0.20
2018-03-03T08:54:13.977Z,-0.10
2018-03-03T08:56:40.142Z,-0.10
2018-03-03T08:59:07.535Z,0.00
2018-03-03T09:01:33.745Z,0.00
2018-03-03T09:04:00.987Z,0.10
2018-03-03T09:06:27.989Z,0.10
2018-03-03T09:08:54.214Z,-1.50
2018-03-03T09:11:20.509Z,0.10
2018-03-03T09:13:47.002Z,0.10
2018-03-03T09:16:13.170Z,0.20
2018-03-03T09:18:39.482Z,0.10
2018-03-03T09:21:06.431Z,0.20
2018-03-03T09:23:33.426Z,0.20
2018-03-03T09:25:59.648Z,0.20
2018-03-03T09:28:25.931Z,0.10
2018-03-03T09:30:53.015Z,0.20
2018-03-03T09:33:19.267Z,0.10
2018-03-03T09:35:45.598Z,0.10
2018-03-03T09:38:11.805Z,0.20
2018-03-03T09:40:38.001Z,0.20
2018-03-03T09:43:05.003Z,0.30
2018-03-03T09:45:31.269Z,0.30
2018-03-03T09:47:57.510Z,0.30
2018-03-03T09:50:24.715Z,0.30
2018-03-03T09:52:50.934Z,0.30
2018-03-03T09:55:17.147Z,0.30
2018-03-03T09:57:44.137Z,0.30
2018-03-03T10:00:11.378Z,0.40
2018-03-03T10:02:37.639Z,0.40
2018-03-03T10:05:04.726Z,0.50
2018-03-03T10:07:31.785Z,0.50
2018-03-03T10:22:58.090Z,0.40
2018-03-03T10:25:24.315Z,0.70
2018-03-03T10:27:51.531Z,0.70
2018-03-03T10:30:17.803Z,1.00
2018-03-03T10:32:45.195Z,1.20
2018-03-03T10:35:12.455Z,1.30
2018-03-03T10:37:38.720Z,1.60
2018-03-03T10:40:05.714Z,2.90
2018-03-03T10:42:32.021Z,2.90
2018-03-03T10:44:59.509Z,3.00
2018-03-03T10:47:25.883Z,2.50
2018-03-03T10:49:52.851Z,2.00
2018-03-03T10:52:19.064Z,1.90
2018-03-03T10:54:46.052Z,1.60
2018-03-03T10:57:12.319Z,1.40
2018-03-03T10:59:38.620Z,1.40
2018-03-03T11:02:04.868Z,1.40
2018-03-03T11:04:31.098Z,1.20
2018-03-03T11:06:59.192Z,1.30
2018-03-03T11:09:25.535Z,1.20
2018-03-03T11:11:52.504Z,1.30
2018-03-03T11:14:19.117Z,1.30
2018-03-03T11:16:46.179Z,1.30
2018-03-03T11:19:14.209Z,1.40
2018-03-03T11:21:40.415Z,1.30
2018-03-03T11:24:06.672Z,1.50
2018-03-03T11:26:32.904Z,1.50
2018-03-03T11:28:59.227Z,1.50
2018-03-03T11:31:25.460Z,1.60
2018-03-03T11:33:51.734Z,1.70
2018-03-03T11:36:18.003Z,1.80
2018-03-03T11:38:44.241Z,1.90
2018-03-03T11:41:10.533Z,1.90
2018-03-03T11:43:37.624Z,1.90
2018-03-03T11:46:04.237Z,2.10
2018-03-03T11:48:30.486Z,2.00
2018-03-03T11:50:56.740Z,2.30
2018-03-03T11:53:23.816Z,2.30
2018-03-03T11:55:50.109Z,2.30
2018-03-03T11:58:16.366Z,2.30
2018-03-03T12:00:42.623Z,2.40
2018-03-03T12:03:08.978Z,2.60
2018-03-03T12:05:35.209Z,2.70
2018-03-03T12:08:02.321Z,2.80
2018-03-03T12:10:28.594Z,2.80
2018-03-03T12:12:54.900Z,3.00
2018-03-03T12:15:21.242Z,3.10
2018-03-03T12:17:47.471Z,3.10
2018-03-03T12:20:13.750Z,3.10
2018-03-03T12:22:40.028Z,3.30
2018-03-03T12:25:06.264Z,3.40
2018-03-03T12:27:32.490Z,3.40
2018-03-03T12:29:58.746Z,3.40
2018-03-03T12:32:25.370Z,3.30
2018-03-03T12:34:51.697Z,3.20
2018-03-03T12:37:19.676Z,3.30
2018-03-03T12:39:46.068Z,3.30
2018-03-03T12:42:12.306Z,3.40
2018-03-03T12:44:38.580Z,3.50
2018-03-03T12:47:05.662Z,3.30
2018-03-03T12:49:31.842Z,3.40
2018-03-03T12:51:58.109Z,3.40
2018-03-03T12:54:25.080Z,3.40
2018-03-03T12:56:51.429Z,3.40
2018-03-03T12:59:17.689Z,3.40
2018-03-03T13:01:43.953Z,3.40
2018-03-03T13:04:10.910Z,3.40
2018-03-03T13:06:37.182Z,3.40
2018-03-03T13:09:03.505Z,3.40
2018-03-03T13:11:29.710Z,3.30
2018-03-03T13:13:55.932Z,3.30
2018-03-03T13:16:22.171Z,3.40
2018-03-03T13:18:48.467Z,3.30
2018-03-03T13:21:15.430Z,3.30
2018-03-03T13:23:43.462Z,3.30
2018-03-03T13:26:10.675Z,3.30
2018-03-03T13:28:36.930Z,3.40
2018-03-03T13:31:03.154Z,3.50
2018-03-03T13:33:29.474Z,3.60
2018-03-03T13:35:55.727Z,3.70
2018-03-03T13:38:22.008Z,3.70
2018-03-03T13:40:48.349Z,3.80
2018-03-03T13:43:14.644Z,3.80
2018-03-03T13:45:42.045Z,3.80
2018-03-03T13:48:08.278Z,3.80
2018-03-03T13:50:34.621Z,3.80
2018-03-03T13:53:00.801Z,3.80
2018-03-03T13:55:27.776Z,3.60
2018-03-03T13:57:54.006Z,3.60
2018-03-03T14:00:20.254Z,3.60
2018-03-03T14:02:46.462Z,3.70
2018-03-03T14:05:12.708Z,3.70
2018-03-03T14:07:39.086Z,3.70
2018-03-03T14:10:06.077Z,3.80
2018-03-03T14:12:32.345Z,3.60
2018-03-03T14:14:58.670Z,3.60
2018-03-03T14:17:24.933Z,3.60
2018-03-03T14:19:51.114Z,3.50
2018-03-03T14:22:17.356Z,3.80
2018-03-03T14:24:43.575Z,3.80
2018-03-03T14:27:09.939Z,3.80
2018-03-03T14:29:36.177Z,3.80
2018-03-03T15:15:43.502Z,3.60
2018-03-03T15:18:09.902Z,3.50
2018-03-03T15:20:36.254Z,3.50
2018-03-03T15:23:02.561Z,3.60
2018-03-03T15:25:29.678Z,3.30
2018-03-03T15:27:56.790Z,3.20
2018-03-03T15:30:23.061Z,3.20
2018-03-03T15:32:49.398Z,3.20
2018-03-03T15:35:15.729Z,3.20
2018-03-03T15:37:42.922Z,3.20
2018-03-03T15:40:09.195Z,3.20
2018-03-03T15:42:36.863Z,3.20
2018-03-03T15:45:03.272Z,3.20
2018-03-03T15:47:31.035Z,3.20
2018-03-03T15:49:57.326Z,3.20
2018-03-03T15:52:24.280Z,3.30
2018-03-03T15:54:51.364Z,4.00
2018-03-03T15:57:18.305Z,4.80
2018-03-03T15:59:45.530Z,4.80
2018-03-03T16:02:12.490Z,5.50
2018-03-03T16:04:38.763Z,5.00
2018-03-03T16:07:04.939Z,4.90
2018-03-03T16:09:31.914Z,4.10
2018-03-03T16:11:58.160Z,4.10
2018-03-03T16:14:25.302Z,3.50
2018-03-03T16:16:53.075Z,3.50
2018-03-03T16:19:20.456Z,3.20
2018-03-03T16:21:47.005Z,3.10
2018-03-03T16:24:14.232Z,3.00
2018-03-03T16:26:40.765Z,2.90
2018-03-03T16:29:07.191Z,2.80
2018-03-03T16:31:33.584Z,2.80
2018-03-03T16:34:01.202Z,2.70
2018-03-03T16:36:28.249Z,2.60
2018-03-03T16:38:55.452Z,2.60
2018-03-03T16:41:21.915Z,2.50
2018-03-03T16:43:48.589Z,2.50
2018-03-03T16:48:43.940Z,2.40
2018-03-03T16:51:10.441Z,2.30
2018-03-03T16:53:37.706Z,2.30
2018-03-03T16:56:04.339Z,2.20
2018-03-03T16:58:30.694Z,2.20
2018-03-03T17:00:57.242Z,2.10
2018-03-03T17:03:30.110Z,2.10
2018-03-03T17:05:56.593Z,2.10
2018-03-03T17:08:22.808Z,2.10
2018-03-03T17:10:49.112Z,2.00
2018-03-03T17:13:16.187Z,1.90
2018-03-03T17:15:42.438Z,1.90
2018-03-03T17:18:08.707Z,1.90
2018-03-03T17:20:35.978Z,1.90
2018-03-03T17:23:03.167Z,1.80
2018-03-03T17:25:29.422Z,1.80
2018-03-03T17:27:55.701Z,1.80
2018-03-03T17:30:21.988Z,1.80
2018-03-03T17:32:48.164Z,1.80
2018-03-03T17:35:14.407Z,1.80
2018-03-03T17:37:40.636Z,1.80
2018-03-03T17:40:06.880Z,1.80
2018-03-03T17:42:33.182Z,1.70
2018-03-03T17:44:59.490Z,1.70
2018-03-03T17:47:25.689Z,1.70
2018-03-03T17:49:51.966Z,1.70
2018-03-03T17:52:18.193Z,1.70
2018-03-03T17:54:44.525Z,1.70
2018-03-03T17:57:26.436Z,1.70
2018-03-03T17:59:52.688Z,1.60
2018-03-03T18:02:18.916Z,1.60
2018-03-03T18:04:45.126Z,1.60
2018-03-03T18:07:11.459Z,1.60
2018-03-03T18:09:37.795Z,1.60
2018-03-03T18:12:04.020Z,1.60
2018-03-03T18:14:30.269Z,1.60
2018-03-03T18:16:56.494Z,1.60
2018-03-03T18:19:38.613Z,1.60
2018-03-03T18:22:05.661Z,1.70
2018-03-03T18:24:35.736Z,1.70
2018-03-03T18:27:02.042Z,1.80
2018-03-03T18:29:29.036Z,1.80
2018-03-03T18:31:55.275Z,1.80
2018-03-03T18:34:21.457Z,1.80
2018-03-03T18:36:48.402Z,1.80
2018-03-03T18:39:15.453Z,1.80
2018-03-03T18:41:41.707Z,1.80
2018-03-03T18:44:07.956Z,1.90
2018-03-03T18:46:34.246Z,1.90
2018-03-03T18:49:01.228Z,1.90
2018-03-03T18:51:27.518Z,1.80
2018-03-03T18:53:54.498Z,1.80
2018-03-03T18:56:20.697Z,1.80
2018-03-03T18:58:47.654Z,1.90
2018-03-03T19:01:13.927Z,1.90
2018-03-03T19:03:40.173Z,2.20
2018-03-03T19:06:06.364Z,1.90
2018-03-03T19:08:32.628Z,1.90
2018-03-03T19:10:58.858Z,1.90
2018-03-03T19:13:25.166Z,2.00
2018-03-03T19:15:51.523Z,2.00
2018-03-03T19:18:17.839Z,2.00
2018-03-03T19:20:44.075Z,2.00
2018-03-03T19:23:10.347Z,2.00
2018-03-03T19:25:36.680Z,2.00
2018-03-03T19:28:02.981Z,2.00
2018-03-03T19:30:29.173Z,2.10
2018-03-03T19:32:55.399Z,2.10
2018-03-03T19:35:21.637Z,2.10
2018-03-03T19:37:47.854Z,2.10
2018-03-03T19:40:14.096Z,2.10
2018-03-03T19:42:40.284Z,1.90
2018-03-03T19:45:06.627Z,2.10
2018-03-03T19:47:32.876Z,2.10
2018-03-03T19:49:59.124Z,2.10
2018-03-03T19:52:25.327Z,2.10
2018-03-03T19:54:51.646Z,2.20
2018-03-03T19:57:17.951Z,2.00
2018-03-03T19:59:45.023Z,2.20
2018-03-03T20:02:11.844Z,2.20
2018-03-03T20:04:38.273Z,2.20
2018-03-03T20:07:05.280Z,2.20
2018-03-03T20:09:31.511Z,2.20
2018-03-03T20:11:57.743Z,2.20
2018-03-03T20:14:23.982Z,2.20
2018-03-03T20:16:51.027Z,2.20
2018-03-03T20:19:17.262Z,2.10
2018-03-03T20:21:43.549Z,2.20
2018-03-03T20:24:09.762Z,2.20
2018-03-03T20:26:35.995Z,2.80
2018-03-03T20:29:03.127Z,2.80
2018-03-03T20:31:30.142Z,2.60
2018-03-03T20:33:56.369Z,2.60
2018-03-03T20:36:22.628Z,2.50
2018-03-03T20:38:49.581Z,2.30
2018-03-03T20:41:16.569Z,2.30
2018-03-03T20:43:42.822Z,2.30
2018-03-03T20:46:09.076Z,2.20
2018-03-03T20:48:36.029Z,2.20
2018-03-03T20:51:03.035Z,2.10
2018-03-03T20:53:29.308Z,2.10
2018-03-03T20:55:56.267Z,2.10
2018-03-03T20:58:22.436Z,2.00
2018-03-03T21:00:48.634Z,2.10
2018-03-03T21:03:14.924Z,2.00
2018-03-03T21:05:41.374Z,2.00
2018-03-03T21:08:08.421Z,2.10
2018-03-03T21:10:35.467Z,2.10
2018-03-03T21:13:02.474Z,2.00
2018-03-03T21:15:28.759Z,2.00
2018-03-03T21:17:56.460Z,2.00
2018-03-03T21:20:23.484Z,2.00
2018-03-03T21:22:49.760Z,1.90
2018-03-03T21:25:16.093Z,1.90
2018-03-03T21:27:42.417Z,1.90
2018-03-03T21:30:08.691Z,1.90
2018-03-03T21:32:34.932Z,1.80
2018-03-03T21:35:01.243Z,1.80
2018-03-03T21:37:29.083Z,1.80
2018-03-03T21:39:55.345Z,1.80
2018-03-03T21:42:22.297Z,1.80
2018-03-03T21:44:48.550Z,1.80
2018-03-03T21:47:14.837Z,1.80
2018-03-03T21:49:41.830Z,2.70
2018-03-03T21:52:08.069Z,2.80
2018-03-03T21:54:49.314Z,2.40
2018-03-03T21:59:53.893Z,2.20
2018-03-03T22:02:20.101Z,2.00
2018-03-03T22:04:46.342Z,2.00
2018-03-03T22:07:12.610Z,1.90
2018-03-03T22:09:38.857Z,1.90
2018-03-03T22:12:05.826Z,1.80
2018-03-03T22:14:32.210Z,1.80
2018-03-03T22:16:58.570Z,1.80
2018-03-03T22:19:25.533Z,1.80
2018-03-03T22:21:51.825Z,1.80
2018-03-03T22:24:18.201Z,1.80
2018-03-03T22:26:44.612Z,1.80
2018-03-03T22:29:11.007Z,1.80
2018-03-03T22:31:37.280Z,1.90
2018-03-03T22:34:04.262Z,1.80
2018-03-03T22:36:30.558Z,1.80
2018-03-03T22:38:57.551Z,1.80
2018-03-03T22:41:23.907Z,1.80
2018-03-03T22:43:50.240Z,1.80
2018-03-03T22:46:18.845Z,1.80
2018-03-03T22:48:45.884Z,2.00
2018-03-03T22:51:12.113Z,1.90
2018-03-03T22:53:40.095Z,2.00
2018-03-03T22:56:08.103Z,1.90
2018-03-03T22:58:35.973Z,1.90
2018-03-03T23:01:04.248Z,1.80
2018-03-03T23:03:30.822Z,2.00
2018-03-03T23:05:57.940Z,1.70
2018-03-03T23:08:24.915Z,1.80
2018-03-03T23:10:52.250Z,1.70
2018-03-03T23:13:18.505Z,1.70
2018-03-03T23:15:45.599Z,1.70
2018-03-03T23:18:11.911Z,1.70
2018-03-03T23:20:38.869Z,1.70
2018-03-03T23:23:05.187Z,1.70
2018-03-03T23:25:33.672Z,1.70
2018-03-03T23:28:00.725Z,1.70
2018-03-03T23:30:27.703Z,1.70
2018-03-03T23:32:53.919Z,1.70
2018-03-03T23:35:20.199Z,1.70
2018-03-03T23:37:46.398Z,1.60
2018-03-03T23:40:14.555Z,1.60
2018-03-03T23:42:40.813Z,1.70
2018-03-03T23:45:07.528Z,1.70
2018-03-03T23:47:33.843Z,1.70
2018-03-03T23:50:00.060Z,1.70
2018-03-03T23:52:28.016Z,1.60
2018-03-03T23:54:55.016Z,1.70
2018-03-03T23:57:22.319Z,1.60
2018-03-03T23:59:49.330Z,1.70
